Aeolos — V7PS2 — position and weather

sailwx.info

Track history (hours):
 
Tides and Currents Weather Stations Pressure Air Temp Water Temp Dewpoint Dewpoint Depression Visibility Wind Speed Wind Dir Waves Ship Positions

Aeolos

Last reported at 2015-Jul-04 13:28 UTC. Time now 2015-Jul-04 18:57 UTC.
Position N 36°10' W 010°33'.

Length 172 m; draft 7 m.

Type: Cargo ship. MMSI: 538003275.

Date/timePositionNaut miles runAvg speedWind from/ knotsBaromVisibWave heightAir tempDewpointWater temp
2015-Jul-04 13:28N 36°10' W 010°33'5111.9
2015-Jul-04 09:11N 36°02' W 009°31'2011.8
2015-Jul-04 07:28N 35°59' W 009°06'1112.2
2015-Jul-04 06:33N 35°58' W 008°53'1212.3
2015-Jul-04 05:33N 35°58' W 008°37'1312.2
2015-Jul-04 04:31N 35°58' W 008°22'1312.6
2015-Jul-04 03:28N 35°58' W 008°05'1212.8
2015-Jul-04 02:33N 35°58' W 007°51'1412.6
2015-Jul-04 01:26N 35°59' W 007°33'1112.5
2015-Jul-04 00:33N 35°58' W 007°20'1212.5
2015-Jul-03 23:33N 35°58' W 007°04'1312.5
2015-Jul-03 22:33N 35°58' W 006°49'5810.9
2015-Jul-03 17:15N 35°58' W 005°37'810.2
2015-Jul-03 16:30N 35°60' W 005°28'9 9.3
2015-Jul-03 15:33N 36°07' W 005°22'1 0.7
2015-Jul-03 14:22N 36°08' W 005°22'0 0.2
2015-Jul-03 13:31N 36°08' W 005°22'0 0.1
2015-Jul-03 12:31N 36°08' W 005°22'0 0.0
2015-Jul-03 08:09N 36°08' W 005°22'2 4.2
2015-Jul-03 07:33N 36°05' W 005°21'5 4.6
2015-Jul-03 06:33N 36°05' W 005°16'9 8.8
2015-Jul-03 05:32N 36°08' W 005°05'10411.6
2015-Jul-02 20:32N 36°23' W 002°58'1212.5
2015-Jul-02 19:34N 36°24' W 002°43'1312.7
2015-Jul-02 18:33N 36°24' W 002°27'1312.7
2015-Jul-02 17:34N 36°26' W 002°11'1312.9
2015-Jul-02 16:34N 36°30' W 001°56'1312.8
2015-Jul-02 15:33N 36°32' W 001°40'1212.4
2015-Jul-02 14:33N 36°34' W 001°25'1212.3
2015-Jul-02 13:34N 36°35' W 001°10'6512.3
2015-Jul-02 08:16N 36°45' E 000°11'912.5
2015-Jul-02 07:31N 36°46' E 000°22'1212.3
2015-Jul-02 06:33N 36°48' E 000°37'1211.8
2015-Jul-02 05:33N 36°49' E 000°52'1111.4
2015-Jul-02 04:33N 36°50' E 001°06'1211.9
2015-Jul-02 03:33N 36°52' E 001°21'1212.0
2015-Jul-02 02:33N 36°54' E 001°35'1211.8
2015-Jul-02 01:34N 36°56' E 001°49'1212.2
2015-Jul-02 00:34N 36°58' E 002°05'1212.4
2015-Jul-01 23:33N 36°59' E 002°20'1312.7
2015-Jul-01 22:34N 37°01' E 002°36'1212.2
2015-Jul-01 21:33N 37°03' E 002°51'1212.5
2015-Jul-01 20:33N 37°06' E 003°06'1312.7
2015-Jul-01 19:34N 37°07' E 003°22'1313.3
2015-Jul-01 18:33N 37°09' E 003°39'1313.3
2015-Jul-01 17:33N 37°10' E 003°55'1313.5
2015-Jul-01 16:34N 37°12' E 004°12'1312.9
2015-Jul-01 15:33N 37°14' E 004°28'1312.7
2015-Jul-01 14:33N 37°16' E 004°44'1312.6
2015-Jul-01 13:34N 37°18' E 004°59'1312.5
2015-Jul-01 12:33N 37°20' E 005°15'1312.8
2015-Jul-01 11:33N 37°22' E 005°31'1313.1
2015-Jul-01 10:33N 37°23' E 005°47'1413.4
2015-Jul-01 09:32N 37°25' E 006°04'1813.5
2015-Jul-01 08:14N 37°27' E 006°26'1513.5
2015-Jul-01 07:09N 37°29' E 006°44'813.3
2015-Jul-01 06:33N 37°31' E 006°54'2612.8
2015-Jul-01 04:33N 37°35' E 007°26'1312.5
2015-Jul-01 03:31N 37°37' E 007°42'1212.5
2015-Jul-01 02:32N 37°38' E 007°58'1212.6
2015-Jul-01 01:34N 37°40' E 008°13'1312.8
2015-Jul-01 00:33N 37°42' E 008°29'1312.7
2015-Jun-30 23:33N 37°43' E 008°45'1312.4
2015-Jun-30 22:29N 37°42' E 009°02'1112.2
2015-Jun-30 21:33N 37°42' E 009°16'1212.1
2015-Jun-30 20:32N 37°41' E 009°32'1812.0
2015-Jun-30 19:04N 37°40' E 009°54'1012.0
2015-Jun-30 18:12N 37°39' E 010°07'812.0
2015-Jun-30 17:33N 37°39' E 010°17'1212.0
2015-Jun-30 16:33N 37°36' E 010°32'1412.2
2015-Jun-30 15:23N 37°33' E 010°49'1011.9
2015-Jun-30 14:33N 37°30' E 011°01'1212.1
2015-Jun-30 13:33N 37°26' E 011°16'1312.6
2015-Jun-30 12:34N 37°20' E 011°29'1312.9
2015-Jun-30 11:33N 37°13' E 011°43'1312.8
2015-Jun-30 10:34N 37°07' E 011°57'1312.6
2015-Jun-30 09:34N 37°02' E 012°11'1212.4
2015-Jun-30 08:34N 36°59' E 012°26'1212.4
2015-Jun-30 07:34N 36°55' E 012°41'1212.2
2015-Jun-30 06:34N 36°51' E 012°56'1212.0
2015-Jun-30 05:34N 36°48' E 013°10'1211.8
2015-Jun-30 04:34N 36°44' E 013°24'1212.0
2015-Jun-30 03:33N 36°40' E 013°38'1212.1
2015-Jun-30 02:34N 36°36' E 013°52'1211.9
2015-Jun-30 01:34N 36°33' E 014°06'1212.4
2015-Jun-30 00:34N 36°29' E 014°21'1212.2
2015-Jun-29 23:34N 36°25' E 014°35'1212.1
2015-Jun-29 22:34N 36°25' E 014°51'1212.3
2015-Jun-29 21:34N 36°25' E 015°06'1312.5
2015-Jun-29 20:33N 36°25' E 015°21'1212.2
2015-Jun-29 19:32N 36°25' E 015°37'  
Track history (hours):
 
Tides and Currents Weather Stations Pressure Air Temp Water Temp Dewpoint Dewpoint Depression Visibility Wind Speed Wind Dir Waves Ship Positions

Aeolos

Last reported at 2015-Jul-04 13:28 UTC. Time now 2015-Jul-04 18:57 UTC.
Position N 36°10' W 010°33'.

Length 172 m; draft 7 m.

Type: Cargo ship. MMSI: 538003275.

Date/timePositionNaut miles runAvg speedWind from/ knotsBaromVisibWave heightAir tempDewpointWater temp
2015-Jul-04 13:28N 36°10' W 010°33'5111.9
2015-Jul-04 09:11N 36°02' W 009°31'2011.8
2015-Jul-04 07:28N 35°59' W 009°06'1112.2
2015-Jul-04 06:33N 35°58' W 008°53'1212.3
2015-Jul-04 05:33N 35°58' W 008°37'1312.2
2015-Jul-04 04:31N 35°58' W 008°22'1312.6
2015-Jul-04 03:28N 35°58' W 008°05'1212.8
2015-Jul-04 02:33N 35°58' W 007°51'1412.6
2015-Jul-04 01:26N 35°59' W 007°33'1112.5
2015-Jul-04 00:33N 35°58' W 007°20'1212.5
2015-Jul-03 23:33N 35°58' W 007°04'1312.5
2015-Jul-03 22:33N 35°58' W 006°49'5810.9
2015-Jul-03 17:15N 35°58' W 005°37'810.2
2015-Jul-03 16:30N 35°60' W 005°28'9 9.3
2015-Jul-03 15:33N 36°07' W 005°22'1 0.7
2015-Jul-03 14:22N 36°08' W 005°22'0 0.2
2015-Jul-03 13:31N 36°08' W 005°22'0 0.1
2015-Jul-03 12:31N 36°08' W 005°22'0 0.0
2015-Jul-03 08:09N 36°08' W 005°22'2 4.2
2015-Jul-03 07:33N 36°05' W 005°21'5 4.6
2015-Jul-03 06:33N 36°05' W 005°16'9 8.8
2015-Jul-03 05:32N 36°08' W 005°05'10411.6
2015-Jul-02 20:32N 36°23' W 002°58'1212.5
2015-Jul-02 19:34N 36°24' W 002°43'1312.7
2015-Jul-02 18:33N 36°24' W 002°27'1312.7
2015-Jul-02 17:34N 36°26' W 002°11'1312.9
2015-Jul-02 16:34N 36°30' W 001°56'1312.8
2015-Jul-02 15:33N 36°32' W 001°40'1212.4
2015-Jul-02 14:33N 36°34' W 001°25'1212.3
2015-Jul-02 13:34N 36°35' W 001°10'6512.3
2015-Jul-02 08:16N 36°45' E 000°11'912.5
2015-Jul-02 07:31N 36°46' E 000°22'1212.3
2015-Jul-02 06:33N 36°48' E 000°37'1211.8
2015-Jul-02 05:33N 36°49' E 000°52'1111.4
2015-Jul-02 04:33N 36°50' E 001°06'1211.9
2015-Jul-02 03:33N 36°52' E 001°21'1212.0
2015-Jul-02 02:33N 36°54' E 001°35'1211.8
2015-Jul-02 01:34N 36°56' E 001°49'1212.2
2015-Jul-02 00:34N 36°58' E 002°05'1212.4
2015-Jul-01 23:33N 36°59' E 002°20'1312.7
2015-Jul-01 22:34N 37°01' E 002°36'1212.2
2015-Jul-01 21:33N 37°03' E 002°51'1212.5
2015-Jul-01 20:33N 37°06' E 003°06'1312.7
2015-Jul-01 19:34N 37°07' E 003°22'1313.3
2015-Jul-01 18:33N 37°09' E 003°39'1313.3
2015-Jul-01 17:33N 37°10' E 003°55'1313.5
2015-Jul-01 16:34N 37°12' E 004°12'1312.9
2015-Jul-01 15:33N 37°14' E 004°28'1312.7
2015-Jul-01 14:33N 37°16' E 004°44'1312.6
2015-Jul-01 13:34N 37°18' E 004°59'1312.5
2015-Jul-01 12:33N 37°20' E 005°15'1312.8
2015-Jul-01 11:33N 37°22' E 005°31'1313.1
2015-Jul-01 10:33N 37°23' E 005°47'1413.4
2015-Jul-01 09:32N 37°25' E 006°04'1813.5
2015-Jul-01 08:14N 37°27' E 006°26'1513.5
2015-Jul-01 07:09N 37°29' E 006°44'813.3
2015-Jul-01 06:33N 37°31' E 006°54'2612.8
2015-Jul-01 04:33N 37°35' E 007°26'1312.5
2015-Jul-01 03:31N 37°37' E 007°42'1212.5
2015-Jul-01 02:32N 37°38' E 007°58'1212.6
2015-Jul-01 01:34N 37°40' E 008°13'1312.8
2015-Jul-01 00:33N 37°42' E 008°29'1312.7
2015-Jun-30 23:33N 37°43' E 008°45'1312.4
2015-Jun-30 22:29N 37°42' E 009°02'1112.2
2015-Jun-30 21:33N 37°42' E 009°16'1212.1
2015-Jun-30 20:32N 37°41' E 009°32'1812.0
2015-Jun-30 19:04N 37°40' E 009°54'1012.0
2015-Jun-30 18:12N 37°39' E 010°07'812.0
2015-Jun-30 17:33N 37°39' E 010°17'1212.0
2015-Jun-30 16:33N 37°36' E 010°32'1412.2
2015-Jun-30 15:23N 37°33' E 010°49'1011.9
2015-Jun-30 14:33N 37°30' E 011°01'1212.1
2015-Jun-30 13:33N 37°26' E 011°16'1312.6
2015-Jun-30 12:34N 37°20' E 011°29'1312.9
2015-Jun-30 11:33N 37°13' E 011°43'1312.8
2015-Jun-30 10:34N 37°07' E 011°57'1312.6
2015-Jun-30 09:34N 37°02' E 012°11'1212.4
2015-Jun-30 08:34N 36°59' E 012°26'1212.4
2015-Jun-30 07:34N 36°55' E 012°41'1212.2
2015-Jun-30 06:34N 36°51' E 012°56'1212.0
2015-Jun-30 05:34N 36°48' E 013°10'1211.8
2015-Jun-30 04:34N 36°44' E 013°24'1212.0
2015-Jun-30 03:33N 36°40' E 013°38'1212.1
2015-Jun-30 02:34N 36°36' E 013°52'1211.9
2015-Jun-30 01:34N 36°33' E 014°06'1212.4
2015-Jun-30 00:34N 36°29' E 014°21'1212.2
2015-Jun-29 23:34N 36°25' E 014°35'1212.1
2015-Jun-29 22:34N 36°25' E 014°51'1212.3
2015-Jun-29 21:34N 36°25' E 015°06'1312.5
2015-Jun-29 20:33N 36°25' E 015°21'1212.2
2015-Jun-29 19:32N 36°25' E 015°37'  

Dump ship's entire track history